createdAt,value
2023-05-05T00:00:39.235Z,100454.56
2023-05-05T00:03:42.748Z,100450.87
2023-05-05T00:06:45.492Z,100457.91
2023-05-05T00:09:48.576Z,100449.72
2023-05-05T00:12:51.272Z,100443.00
2023-05-05T00:15:54.167Z,100447.84
2023-05-05T00:18:57.266Z,100455.88
2023-05-05T00:22:00.254Z,100446.00
2023-05-05T00:25:02.864Z,100450.19
2023-05-05T00:28:05.648Z,100456.69
2023-05-05T00:31:08.809Z,100443.81
2023-05-05T00:34:11.704Z,100447.31
2023-05-05T00:37:14.598Z,100450.31
2023-05-05T00:40:18.688Z,100439.97
2023-05-05T00:43:21.344Z,100443.81
2023-05-05T00:46:26.583Z,100449.97
2023-05-05T00:49:29.482Z,100447.31
2023-05-05T00:52:32.551Z,100452.78
2023-05-05T00:55:35.707Z,100453.94
2023-05-05T00:58:41.977Z,100446.75
2023-05-05T01:01:46.204Z,100449.56
2023-05-05T01:04:49.334Z,100448.22
2023-05-05T01:07:55.397Z,100442.88
2023-05-05T01:11:05.276Z,100452.44
2023-05-05T01:14:15.846Z,100448.75
2023-05-05T01:17:24.992Z,100449.41
2023-05-05T01:20:40.421Z,100444.03
2023-05-05T01:24:07.965Z,100445.97
2023-05-05T01:27:34.902Z,100429.25
2023-05-05T01:31:14.776Z,100435.53
2023-05-05T01:34:22.485Z,100439.31
2023-05-05T01:37:38.375Z,100438.06
2023-05-05T01:40:51.687Z,100438.69
2023-05-05T01:43:56.140Z,100439.84
2023-05-05T01:46:59.326Z,100443.44
2023-05-05T01:50:03.924Z,100447.41
2023-05-05T01:53:07.402Z,100446.22
2023-05-05T01:56:11.420Z,100444.84
2023-05-05T01:59:14.687Z,100447.59
2023-05-05T02:02:20.126Z,100441.19
2023-05-05T02:05:23.615Z,100441.81
2023-05-05T02:08:26.777Z,100452.78
2023-05-05T02:11:29.882Z,100444.56
2023-05-05T02:14:33.016Z,100442.59
2023-05-05T02:17:35.966Z,100440.22
2023-05-05T02:20:39.056Z,100443.16
2023-05-05T02:23:42.050Z,100444.44
2023-05-05T02:26:46.137Z,100440.69
2023-05-05T02:29:52.047Z,100440.31
2023-05-05T02:32:56.720Z,100437.81
2023-05-05T02:36:06.085Z,100439.94
2023-05-05T02:39:21.661Z,100436.91
2023-05-05T02:42:30.013Z,100440.69
2023-05-05T02:45:32.940Z,100426.75
2023-05-05T02:48:36.122Z,100432.66
2023-05-05T02:51:38.744Z,100441.09
2023-05-05T02:54:42.629Z,100440.56
2023-05-05T02:57:51.906Z,100439.88
2023-05-05T03:01:14.608Z,100440.03
2023-05-05T03:04:23.887Z,100446.09
2023-05-05T03:07:41.040Z,100448.31
2023-05-05T03:10:50.779Z,100450.28
2023-05-05T03:14:04.509Z,100452.41
2023-05-05T03:17:07.439Z,100448.53
2023-05-05T03:20:12.393Z,100447.28
2023-05-05T03:23:18.296Z,100447.19
2023-05-05T03:26:21.531Z,100445.81
2023-05-05T03:29:25.320Z,100447.78
2023-05-05T03:32:30.851Z,100448.34
2023-05-05T03:35:33.449Z,100448.50
2023-05-05T03:38:36.311Z,100453.28
2023-05-05T03:41:39.620Z,100456.06
2023-05-05T03:44:43.050Z,100452.03
2023-05-05T03:47:45.793Z,100446.72
2023-05-05T03:50:48.857Z,100441.28
2023-05-05T03:53:52.305Z,100447.16
2023-05-05T03:56:56.084Z,100444.78
2023-05-05T03:59:58.597Z,100459.03
2023-05-05T04:03:02.106Z,100458.31
2023-05-05T04:06:06.058Z,100454.00
2023-05-05T04:09:09.030Z,100460.97
2023-05-05T04:12:13.153Z,100463.22
2023-05-05T04:15:16.300Z,100464.63
2023-05-05T04:18:19.388Z,100470.22
2023-05-05T04:21:22.195Z,100470.63
2023-05-05T04:24:25.946Z,100475.50
2023-05-05T04:27:30.310Z,100471.28
2023-05-05T04:30:33.699Z,100459.78
2023-05-05T04:33:37.068Z,100472.25
2023-05-05T04:36:40.294Z,100460.87
2023-05-05T04:39:43.133Z,100465.31
2023-05-05T04:42:46.354Z,100471.88
2023-05-05T04:45:53.677Z,100478.41
2023-05-05T04:48:58.871Z,100476.72
2023-05-05T04:52:01.543Z,100488.28
2023-05-05T04:55:05.304Z,100481.41
2023-05-05T04:58:08.909Z,100484.84
2023-05-05T05:01:11.737Z,100495.63
2023-05-05T05:04:18.374Z,100487.75
2023-05-05T05:07:21.393Z,100499.62
2023-05-05T05:10:24.154Z,100482.75
2023-05-05T05:13:27.075Z,100493.78
2023-05-05T05:16:29.591Z,100491.81
2023-05-05T05:19:32.788Z,100505.19
2023-05-05T05:22:38.272Z,100497.97
2023-05-05T05:25:42.597Z,100499.78
2023-05-05T05:28:45.593Z,100503.31
2023-05-05T05:31:48.556Z,100499.72
2023-05-05T05:34:51.158Z,100494.00
2023-05-05T05:37:54.196Z,100497.13
2023-05-05T05:40:57.016Z,100493.88
2023-05-05T05:44:00.456Z,100505.78
2023-05-05T05:47:03.714Z,100504.03
2023-05-05T05:50:07.698Z,100513.78
2023-05-05T05:53:11.153Z,100517.59
2023-05-05T05:56:14.118Z,100522.50
2023-05-05T05:59:16.842Z,100520.69
2023-05-05T06:02:20.984Z,100524.63
2023-05-05T06:05:23.941Z,100526.38
2023-05-05T06:08:26.912Z,100525.22
2023-05-05T06:11:30.235Z,100525.56
2023-05-05T06:14:32.895Z,100527.63
2023-05-05T06:17:35.841Z,100517.59
2023-05-05T06:20:38.403Z,100517.59
2023-05-05T06:23:42.233Z,100521.91
2023-05-05T06:26:44.829Z,100517.34
2023-05-05T06:29:47.761Z,100516.13
2023-05-05T06:32:50.437Z,100524.97
2023-05-05T06:35:53.448Z,100512.50
2023-05-05T06:38:56.079Z,100510.97
2023-05-05T06:41:58.998Z,100506.88
2023-05-05T06:45:02.184Z,100507.97
2023-05-05T06:48:05.582Z,100499.88
2023-05-05T06:51:09.428Z,100505.78
2023-05-05T06:54:12.251Z,100509.38
2023-05-05T06:57:14.921Z,100498.84
2023-05-05T07:00:18.715Z,100497.75
2023-05-05T07:03:21.603Z,100496.81
2023-05-05T07:06:24.556Z,100500.91
2023-05-05T07:09:27.192Z,100510.34
2023-05-05T07:12:33.326Z,100507.69
2023-05-05T07:15:36.020Z,100502.69
2023-05-05T07:18:39.258Z,100514.63
2023-05-05T07:21:41.824Z,100506.19
2023-05-05T07:24:45.517Z,100494.69
2023-05-05T07:27:48.128Z,100489.19
2023-05-05T07:30:52.104Z,100490.66
2023-05-05T07:33:54.824Z,100491.16
2023-05-05T07:36:57.668Z,100493.97
2023-05-05T07:40:00.469Z,100492.22
2023-05-05T07:43:03.451Z,100488.13
2023-05-05T07:46:06.137Z,100489.06
2023-05-05T07:49:09.048Z,100488.75
2023-05-05T07:52:11.699Z,100489.62
2023-05-05T07:55:14.573Z,100495.66
2023-05-05T07:58:17.102Z,100493.44
2023-05-05T08:01:20.199Z,100486.09
2023-05-05T08:04:23.202Z,100494.09
2023-05-05T08:07:25.926Z,100496.06
2023-05-05T08:10:28.895Z,100492.44
2023-05-05T08:13:31.357Z,100494.50
2023-05-05T08:16:34.838Z,100492.28
2023-05-05T08:19:37.683Z,100490.31
2023-05-05T08:22:42.338Z,100482.84
2023-05-05T08:25:44.856Z,100481.22
2023-05-05T08:28:48.655Z,100492.03
2023-05-05T08:31:51.478Z,100479.38
2023-05-05T08:34:54.388Z,100477.94
2023-05-05T08:37:58.909Z,100485.22
2023-05-05T08:41:02.664Z,100482.72
2023-05-05T08:44:05.222Z,100484.16
2023-05-05T08:47:11.163Z,100483.75
2023-05-05T08:50:14.124Z,100487.84
2023-05-05T08:53:17.609Z,100477.72
2023-05-05T08:56:21.985Z,100479.56
2023-05-05T08:59:28.686Z,100474.78
2023-05-05T09:02:31.802Z,100472.22
2023-05-05T09:05:35.961Z,100467.44
2023-05-05T09:08:38.950Z,100471.59
2023-05-05T09:11:41.941Z,100466.56
2023-05-05T09:14:46.460Z,100466.72
2023-05-05T09:17:49.336Z,100460.37
2023-05-05T09:20:52.069Z,100461.03
2023-05-05T09:24:21.368Z,100458.06
2023-05-05T09:27:24.529Z,100449.97
2023-05-05T09:30:27.682Z,100451.28
2023-05-05T09:33:31.235Z,100445.72
2023-05-05T09:36:49.882Z,100446.38
2023-05-05T09:39:56.811Z,100453.87
2023-05-05T09:43:02.931Z,100444.63
2023-05-05T09:46:09.792Z,100440.56
2023-05-05T09:49:14.652Z,100433.25
2023-05-05T09:52:17.768Z,100432.34
2023-05-05T09:55:20.668Z,100426.19
2023-05-05T09:58:24.372Z,100421.19
2023-05-05T10:01:27.245Z,100433.97
2023-05-05T10:04:30.951Z,100424.59
2023-05-05T10:07:33.864Z,100426.84
2023-05-05T10:10:37.848Z,100427.50
2023-05-05T10:13:42.100Z,100428.56
2023-05-05T10:16:50.891Z,100412.97
2023-05-05T10:19:57.288Z,100415.69
2023-05-05T10:23:05.427Z,100408.31
2023-05-05T10:26:08.732Z,100415.97
2023-05-05T10:29:17.741Z,100407.41
2023-05-05T10:33:00.450Z,100411.88
2023-05-05T10:36:09.515Z,100408.34
2023-05-05T10:39:12.119Z,100399.56
2023-05-05T10:42:15.816Z,100407.59
2023-05-05T10:45:18.585Z,100392.00
2023-05-05T10:48:28.019Z,100396.59
2023-05-05T10:51:52.986Z,100398.12
2023-05-05T10:55:04.770Z,100386.53
2023-05-05T10:58:07.254Z,100384.66
2023-05-05T11:01:10.209Z,100369.66
2023-05-05T11:04:19.896Z,100373.28
2023-05-05T11:07:23.802Z,100363.38
2023-05-05T11:10:26.426Z,100363.38
2023-05-05T11:13:29.433Z,100354.59
2023-05-05T11:16:47.503Z,100362.53
2023-05-05T11:19:52.232Z,100356.78
2023-05-05T11:23:04.416Z,100346.78
2023-05-05T11:26:07.816Z,100342.66
2023-05-05T11:29:10.496Z,100342.88
2023-05-05T11:32:15.700Z,100334.06
2023-05-05T11:35:18.404Z,100344.78
2023-05-05T11:38:44.819Z,100333.44
2023-05-05T11:42:10.220Z,100331.25
2023-05-05T11:45:21.028Z,100323.88
2023-05-05T11:48:29.352Z,100325.72
2023-05-05T11:51:32.404Z,100321.78
2023-05-05T11:54:36.510Z,100314.97
2023-05-05T11:57:39.549Z,100317.28
2023-05-05T12:00:42.212Z,100314.59
2023-05-05T12:03:46.360Z,100317.91
2023-05-05T12:06:49.142Z,100308.63
2023-05-05T12:09:52.678Z,100303.53
2023-05-05T12:12:55.596Z,100300.72
2023-05-05T12:16:16.005Z,100294.13
2023-05-05T12:19:18.625Z,100292.16
2023-05-05T12:22:26.014Z,100295.13
2023-05-05T12:25:36.193Z,100300.56
2023-05-05T12:28:44.815Z,100285.06
2023-05-05T12:31:47.875Z,100286.72
2023-05-05T12:34:54.330Z,100276.91
2023-05-05T12:37:56.971Z,100280.97
2023-05-05T12:40:59.898Z,100279.94
2023-05-05T12:44:05.491Z,100281.75
2023-05-05T12:47:08.656Z,100269.19
2023-05-05T12:50:11.349Z,100273.16
2023-05-05T12:53:24.526Z,100266.78
2023-05-05T12:56:40.735Z,100270.00
2023-05-05T12:59:43.606Z,100266.44
2023-05-05T13:02:46.501Z,100256.38
2023-05-05T13:05:49.457Z,100245.88
2023-05-05T13:08:52.091Z,100239.44
2023-05-05T13:11:54.965Z,100239.53
2023-05-05T13:14:57.493Z,100238.91
2023-05-05T13:18:01.555Z,100235.41
2023-05-05T13:21:04.447Z,100232.03
2023-05-05T13:24:20.807Z,100218.25
2023-05-05T13:27:28.543Z,100233.25
2023-05-05T13:30:31.370Z,100220.97
2023-05-05T13:33:34.765Z,100220.72
2023-05-05T13:36:37.852Z,100219.91
2023-05-05T13:39:40.410Z,100216.44
2023-05-05T13:42:44.090Z,100213.87
2023-05-05T13:45:46.850Z,100203.37
2023-05-05T13:48:49.781Z,100195.47
2023-05-05T13:51:52.457Z,100197.81
2023-05-05T13:54:55.589Z,100199.03
2023-05-05T13:57:58.144Z,100202.91
2023-05-05T14:01:00.949Z,100194.47
2023-05-05T14:04:05.705Z,100196.25
2023-05-05T14:07:08.652Z,100185.28
2023-05-05T14:10:11.607Z,100192.00
2023-05-05T14:13:15.508Z,100185.41
2023-05-05T14:16:18.354Z,100184.84
2023-05-05T14:19:20.850Z,100175.78
2023-05-05T14:22:23.886Z,100180.72
2023-05-05T14:25:26.526Z,100183.19
2023-05-05T14:28:29.284Z,100168.19
2023-05-05T14:31:31.887Z,100179.91
2023-05-05T14:34:34.716Z,100169.03
2023-05-05T14:37:37.476Z,100181.47
2023-05-05T14:40:40.608Z,100166.44
2023-05-05T14:43:43.260Z,100168.00
2023-05-05T14:46:46.862Z,100170.00
2023-05-05T14:49:50.886Z,100163.00
2023-05-05T14:52:53.756Z,100163.16
2023-05-05T14:55:56.730Z,100161.81
2023-05-05T14:58:59.539Z,100166.06
2023-05-05T15:02:02.231Z,100162.19
2023-05-05T15:05:06.302Z,100170.56
2023-05-05T15:08:09.114Z,100157.72
2023-05-05T15:11:12.197Z,100164.81
2023-05-05T15:14:14.800Z,100157.72
2023-05-05T15:17:17.617Z,100153.59
2023-05-05T15:20:20.326Z,100156.06
2023-05-05T15:23:23.381Z,100156.00
2023-05-05T15:26:26.664Z,100157.16
2023-05-05T15:29:29.970Z,100156.00
2023-05-05T15:32:32.875Z,100153.19
2023-05-05T15:35:36.320Z,100156.41
2023-05-05T15:38:44.432Z,100154.16
2023-05-05T15:41:47.277Z,100148.03
2023-05-05T15:44:50.561Z,100143.81
2023-05-05T15:47:53.770Z,100141.41
2023-05-05T15:50:56.427Z,100148.38
2023-05-05T15:54:00.197Z,100145.66
2023-05-05T15:57:03.245Z,100140.72
2023-05-05T16:00:07.904Z,100140.56
2023-05-05T16:03:10.404Z,100140.12
2023-05-05T16:06:13.371Z,100141.31
2023-05-05T16:09:16.221Z,100136.16
2023-05-05T16:12:20.853Z,100140.66
2023-05-05T16:15:23.561Z,100139.00
2023-05-05T16:18:26.743Z,100128.50
2023-05-05T16:21:29.364Z,100131.91
2023-05-05T16:24:32.158Z,100138.66
2023-05-05T16:27:34.648Z,100129.56
2023-05-05T16:30:39.772Z,100131.00
2023-05-05T16:33:43.674Z,100120.53
2023-05-05T16:36:46.593Z,100122.94
2023-05-05T16:39:49.144Z,100123.78
2023-05-05T16:42:52.042Z,100122.37
2023-05-05T16:45:55.895Z,100121.66
2023-05-05T16:48:59.060Z,100120.12
2023-05-05T16:52:01.586Z,100120.94
2023-05-05T16:55:05.019Z,100122.22
2023-05-05T16:58:07.959Z,100118.56
2023-05-05T17:01:11.350Z,100111.13
2023-05-05T17:04:14.291Z,100123.94
2023-05-05T17:07:17.095Z,100121.31
2023-05-05T17:10:19.871Z,100117.06
2023-05-05T17:13:23.523Z,100129.63
2023-05-05T17:16:26.101Z,100127.69
2023-05-05T17:19:29.616Z,100119.75
2023-05-05T17:22:32.248Z,100118.66
2023-05-05T17:25:35.806Z,100122.13
2023-05-05T17:28:38.302Z,100117.91
2023-05-05T17:31:42.022Z,100117.63
2023-05-05T17:34:44.638Z,100124.00
2023-05-05T17:37:47.474Z,100123.78
2023-05-05T17:40:50.029Z,100126.22
2023-05-05T17:43:53.534Z,100122.88
2023-05-05T17:46:56.074Z,100129.38
2023-05-05T17:49:59.433Z,100131.81
2023-05-05T17:53:01.956Z,100130.06
2023-05-05T17:56:06.627Z,100129.34
2023-05-05T17:59:11.649Z,100127.78
2023-05-05T18:02:15.022Z,100128.87
2023-05-05T18:05:18.105Z,100131.84
2023-05-05T18:08:20.806Z,100132.53
2023-05-05T18:11:27.577Z,100134.66
2023-05-05T18:14:30.187Z,100143.00
2023-05-05T18:17:32.972Z,100136.56
2023-05-05T18:20:35.673Z,100141.09
2023-05-05T18:23:39.736Z,100135.13
2023-05-05T18:26:42.282Z,100145.69
2023-05-05T18:29:45.295Z,100154.38
2023-05-05T18:32:48.800Z,100151.69
2023-05-05T18:35:51.981Z,100150.44
2023-05-05T18:38:54.647Z,100146.19
2023-05-05T18:41:58.090Z,100157.53
2023-05-05T18:45:00.655Z,100159.78
2023-05-05T18:48:03.677Z,100156.22
2023-05-05T18:51:07.455Z,100157.81
2023-05-05T18:54:10.446Z,100164.97
2023-05-05T18:57:13.009Z,100172.97
2023-05-05T19:00:16.642Z,100178.22
2023-05-05T19:03:19.762Z,100175.44
2023-05-05T19:06:22.921Z,100173.94
2023-05-05T19:09:25.673Z,100181.94
2023-05-05T19:12:28.583Z,100184.94
2023-05-05T19:15:31.858Z,100181.12
2023-05-05T19:18:34.706Z,100172.97
2023-05-05T19:21:37.199Z,100185.84
2023-05-05T19:24:40.218Z,100180.09
2023-05-05T19:27:43.139Z,100179.22
2023-05-05T19:30:48.823Z,100171.66
2023-05-05T19:33:51.310Z,100173.44
2023-05-05T19:36:54.104Z,100183.47
2023-05-05T19:39:56.916Z,100177.84
2023-05-05T19:42:59.739Z,100177.59
2023-05-05T19:46:02.914Z,100178.31
2023-05-05T19:49:06.215Z,100177.78
2023-05-05T19:52:08.724Z,100181.22
2023-05-05T19:55:13.057Z,100181.50
2023-05-05T19:58:15.732Z,100188.12
2023-05-05T20:01:18.725Z,100179.37
2023-05-05T20:04:21.611Z,100178.06
2023-05-05T20:07:24.178Z,100171.97
2023-05-05T20:10:27.129Z,100176.78
2023-05-05T20:13:29.746Z,100173.13
2023-05-05T20:16:33.491Z,100173.19
2023-05-05T20:19:36.386Z,100179.09
2023-05-05T20:22:40.593Z,100171.34
2023-05-05T20:25:43.486Z,100172.22
2023-05-05T20:28:46.471Z,100175.34
2023-05-05T20:31:49.134Z,100172.37
2023-05-05T20:34:52.014Z,100176.59
2023-05-05T20:37:54.541Z,100176.31
2023-05-05T20:40:57.381Z,100175.19
2023-05-05T20:43:59.906Z,100172.37
2023-05-05T20:47:02.993Z,100170.13
2023-05-05T20:50:06.478Z,100167.16
2023-05-05T20:53:11.056Z,100166.66
2023-05-05T20:56:13.540Z,100169.69
2023-05-05T20:59:16.328Z,100173.56
2023-05-05T21:02:19.628Z,100168.91
2023-05-05T21:05:23.312Z,100170.62
2023-05-05T21:08:26.326Z,100173.81
2023-05-05T21:11:29.262Z,100165.28
2023-05-05T21:14:31.969Z,100160.34
2023-05-05T21:17:34.914Z,100159.34
2023-05-05T21:20:37.625Z,100162.37
2023-05-05T21:23:40.518Z,100161.72
2023-05-05T21:26:44.276Z,100163.44
2023-05-05T21:29:47.023Z,100162.47
2023-05-05T21:32:49.647Z,100152.47
2023-05-05T21:35:52.466Z,100155.31
2023-05-05T21:38:57.639Z,100157.66
2023-05-05T21:42:01.386Z,100159.00
2023-05-05T21:45:04.771Z,100154.34
2023-05-05T21:48:07.729Z,100145.84
2023-05-05T21:51:10.381Z,100152.06
2023-05-05T21:54:13.387Z,100148.53
2023-05-05T21:57:16.102Z,100142.22
2023-05-05T22:00:18.946Z,100145.41
2023-05-05T22:03:21.903Z,100138.72
2023-05-05T22:06:24.454Z,100131.72
2023-05-05T22:09:27.419Z,100126.06
2023-05-05T22:12:30.526Z,100133.41
2023-05-05T22:15:45.312Z,100133.09
2023-05-05T22:18:49.664Z,100136.94
2023-05-05T22:21:53.387Z,100136.59
2023-05-05T22:24:56.107Z,100134.44
2023-05-05T22:27:58.973Z,100134.97
2023-05-05T22:31:01.780Z,100134.56
2023-05-05T22:34:04.706Z,100129.91
2023-05-05T22:37:07.451Z,100132.25
2023-05-05T22:40:10.708Z,100141.78
2023-05-05T22:43:13.535Z,100138.59
2023-05-05T22:46:16.324Z,100150.59
2023-05-05T22:49:18.942Z,100147.59
2023-05-05T22:52:21.781Z,100155.94
2023-05-05T22:55:24.870Z,100142.75
2023-05-05T22:58:27.740Z,100153.75
2023-05-05T23:01:30.400Z,100155.59
2023-05-05T23:04:33.570Z,100156.56
2023-05-05T23:07:36.264Z,100166.56
2023-05-05T23:10:39.200Z,100166.25
2023-05-05T23:13:41.851Z,100161.91
2023-05-05T23:16:45.365Z,100158.75
2023-05-05T23:19:48.919Z,100152.75
2023-05-05T23:22:51.668Z,100161.06
2023-05-05T23:25:54.588Z,100156.06
2023-05-05T23:28:57.504Z,100149.19
2023-05-05T23:32:00.149Z,100146.84
2023-05-05T23:35:03.716Z,100148.84
2023-05-05T23:38:06.696Z,100145.19
2023-05-05T23:41:09.869Z,100139.00
2023-05-05T23:44:13.066Z,100129.53
2023-05-05T23:47:16.419Z,100139.66
2023-05-05T23:50:19.193Z,100139.16
2023-05-05T23:53:21.941Z,100138.66
2023-05-05T23:56:24.869Z,100138.00
2023-05-05T23:59:27.762Z,100132.16
